Athens Township, Pennsylvania
Current Conditions -  °F | °C
As of 11:53 PM on Friday 24 Oct 2014 (Local Time) from KBGM Reporting Station
Clear Clear  
Wind Chill:   Ceiling: Unl
Heat Index:   Visibility: 10mi
Dew Point: -1°   Wind: 3mph
Humidity: 58%   Direction: 310°NW
Pressure: 29.9"   Gusts: NA
Location:  41.9771°N, 76.4144°W
Report Text: KBGM 250353Z AUTO 31003KT 10SM CLR 07/M01 A2990 RMK AO2 SLP130 T00671011
Loading
Personal Weather Stations






























Interactive Weather Map
Tropical Storm Tracking
New forecast layout! Learn more

10-Day Weather Forecast

Advertisements
Track Severe Weather on mobile